METAR AND TAF INFORMATION
METAR FOR LEPP
ADDS - METARS form results

(2216 UTC 20 February 2020)
Data provider http://aviationweather.gov/metar/data/
 
METAR text: LEPP 202200Z 33011KT 290V360 9999 SCT025 08/03 Q1029
Conditions at: LEPP (PAMPLONA/NOAIN , ES) observed 2200 UTC 20 February 2020
Temperature: 8.0°C (46°F)
Dewpoint: 3.0°C (37°F) [RH = 71%]
Pressure (altimeter): 30.38 inches Hg (1029.0 mb)
Winds: from the NNW (330 degrees) at 13 MPH (11 knots; 5.7 m/s)
Visibility: 6 or more miles (10+ km)
Ceiling: at least 12,000 feet AGL
Clouds: scattered clouds at 2500 feet AGL
Weather: no significant weather observed at this time

METAR text: LEPP 202130Z 32010KT 290V010 9999 BKN025 08/03 Q1029
Conditions at: LEPP (PAMPLONA/NOAIN , ES) observed 2130 UTC 20 February 2020
Temperature: 8.0°C (46°F)
Dewpoint: 3.0°C (37°F) [RH = 71%]
Pressure (altimeter): 30.38 inches Hg (1029.0 mb)
Winds: from the NW (320 degrees) at 12 MPH (10 knots; 5.1 m/s)
Visibility: 6 or more miles (10+ km)
Ceiling: 2500 feet AGL
Clouds: broken clouds at 2500 feet AGL
Weather: no significant weather observed at this time

Forecast for: LEPP (PAMPLONA/NOAIN , ES)
Text: TAF LEPP 202000Z 2021/2121 33009KT CAVOK TX16/2115Z TN01/2106Z
Forecast period: 2100 UTC 20 February 2020 to 2100 UTC 21 February 2020
Forecast type: FROM: standard forecast or significant change
Winds: from the NNW (330 degrees) at 10 MPH (9 knots; 4.6 m/s)
Visibility: 6 or more miles 10+ km)
Ceiling: unknown
Clouds: missing
Weather: no significant weather forecast for this period
Text: PROB40
Forecast period: 0000 to 0600 UTC 21 February 2020
Forecast type: TEMPORARY: The following changes expected for less than half the time period
Visibility: 1.86 miles (2.99 km)
Ceiling: 1200 feet AGL
Clouds: broken clouds at 1200 feet AGL
Weather: BR  (mist)

 AIRPORT MAP

 RUNWAY INFORMATION
Runway 15 Runway length 0 ft Runway width 0 ft
Runway elevation 1468 ft Runway displaced threshold 0 ft Runway heading 0
Runway 33 Runway length 0 ft Runway width 0 ft
Runway elevation 1500 ft Runway displaced threshold 0 ft Runway heading 0
Runway 16 Runway length 7241 ft Runway width 148 ft
Runway elevation 1468 ft Runway displaced threshold 0 ft Runway heading 152
Runway 34 Runway length 7241 ft Runway width 148 ft
Runway elevation 1504 ft Runway displaced threshold 984 ft Runway heading 332

 AIRPORT FREQUENCIES
Type APP Name APP Frequency 118.2 MHZ
Type GND Name GND Frequency 121.7 MHZ
Type TWR Name TWR Frequency 118.2 MHZ

 AIRPORT NEAR NAVIGATION AIDS
Type NDB Name Pamplona Frequency 422 KHZ
Type VOR-DME Name Pamplona Frequency 113550 KHZ
Type VOR-DME Name Pamplona Frequency 112300 KHZ



Powered by Virtual Airlines Manager [v2.6.2]